Time;durP1;ratioP1;P1;durP2;ratioP2;P2;SDS_P1;SDS_P2;PMS_P1;PMS_P2;Temp;Humidity;BMP_temperature;BMP_pressure;BME280_temperature;BME280_humidity;BME280_pressure;Samples;Min_cycle;Max_cycle;Signal;HPM_P1;HPM_P2
2022/05/21 00:00:15;;;;;;;;;3.50;3.50;;;;;13.86;73.82;100237.00;5038821;28;9498;-62
2022/05/21 00:02:43;;;;;;;;;3.50;3.50;;;;;13.84;73.32;100241.66;5034435;28;8864;-63
2022/05/21 00:05:10;;;;;;;;;2.00;2.00;;;;;13.81;73.55;100241.94;5034539;28;8871;-64
2022/05/21 00:07:38;;;;;;;;;6.50;6.50;;;;;13.80;73.38;100240.22;5034695;28;8828;-63
2022/05/21 00:10:07;;;;;;;;;4.50;4.00;;;;;13.78;73.37;100244.84;5034899;28;8848;-64
2022/05/21 00:12:35;;;;;;;;;3.75;3.75;;;;;13.73;73.42;100237.22;5034837;28;8851;-63
2022/05/21 00:15:03;;;;;;;;;3.25;3.25;;;;;13.72;74.09;100230.19;5034246;28;8851;-63
2022/05/21 00:17:31;;;;;;;;;4.00;4.00;;;;;13.73;74.09;100231.88;5034369;28;8847;-63
2022/05/21 00:20:00;;;;;;;;;4.50;4.50;;;;;13.74;73.49;100233.56;5034778;28;8833;-63
2022/05/21 00:22:28;;;;;;;;;6.00;6.00;;;;;13.74;73.49;100238.94;5035829;28;8958;-63
2022/05/21 00:24:55;;;;;;;;;7.00;6.50;;;;;13.74;73.37;100240.78;5035577;28;8890;-63
2022/05/21 00:27:23;;;;;;;;;6.00;4.00;;;;;13.71;73.15;100249.06;5034449;28;8863;-62
2022/05/21 00:29:51;;;;;;;;;7.50;6.50;;;;;13.71;73.44;100249.06;5048209;28;8823;-62
2022/05/21 00:32:19;;;;;;;;;6.00;1.00;;;;;13.70;73.63;100242.00;5054651;28;8865;-62
2022/05/21 00:34:46;;;;;;;;;6.25;6.00;;;;;13.70;73.37;100245.56;5055857;28;8842;-62
2022/05/21 00:37:14;;;;;;;;;6.75;5.25;;;;;13.69;73.12;100240.31;5055530;28;8826;-62
2022/05/21 00:39:42;;;;;;;;;7.00;6.25;;;;;13.70;73.84;100247.38;5055837;28;8835;-66
2022/05/21 00:42:10;;;;;;;;;9.00;8.00;;;;;13.69;73.37;100246.53;5055971;28;8826;-62
2022/05/21 00:44:37;;;;;;;;;10.75;8.50;;;;;13.70;73.63;100244.69;5055403;28;8832;-62
2022/05/21 00:47:05;;;;;;;;;6.00;6.00;;;;;13.68;73.75;100241.31;5055986;28;8846;-62
2022/05/21 00:49:33;;;;;;;;;8.50;6.75;;;;;13.68;72.99;100243.97;5055504;28;8956;-62
2022/05/21 00:52:02;;;;;;;;;12.75;11.50;;;;;13.67;73.76;100242.28;5055884;28;8834;-62
2022/05/21 00:54:30;;;;;;;;;11.50;9.50;;;;;13.66;73.56;100240.59;5055140;28;8864;-62
2022/05/21 00:56:58;;;;;;;;;12.00;10.50;;;;;13.65;73.42;100242.41;5054981;28;8853;-63
2022/05/21 01:02:12;;;;;;;;;14.25;13.00;;;;;13.70;73.79;100242.00;5035498;28;8845;-63
2022/05/21 01:04:40;;;;;;;;;14.50;12.50;;;;;13.71;73.67;100238.34;5035415;28;8840;-63
2022/05/21 01:07:07;;;;;;;;;15.50;12.25;;;;;13.73;73.31;100241.75;5035223;28;8843;-64
2022/05/21 01:09:35;;;;;;;;;8.00;8.00;;;;;13.73;73.50;100236.41;5035615;28;9534;-63
2022/05/21 01:12:03;;;;;;;;;12.50;11.75;;;;;13.75;73.05;100245.97;5035497;28;8828;-62
2022/05/21 01:14:31;;;;;;;;;10.50;10.50;;;;;13.76;73.72;100244.16;5035860;28;8836;-63
2022/05/21 01:16:58;;;;;;;;;10.00;9.50;;;;;13.76;73.36;100246.84;5035363;28;8848;-63
2022/05/21 01:19:26;;;;;;;;;10.50;10.00;;;;;13.71;73.71;100255.28;5035887;28;8848;-62
2022/05/21 01:21:54;;;;;;;;;10.50;10.50;;;;;13.65;73.42;100246.91;5034907;28;8991;-63
2022/05/21 01:24:22;;;;;;;;;6.00;6.00;;;;;13.57;73.68;100241.38;5039067;28;8850;-62
2022/05/21 01:26:49;;;;;;;;;9.50;7.50;;;;;13.50;73.69;100250.91;5055307;28;8826;-63
2022/05/21 01:29:17;;;;;;;;;10.50;9.75;;;;;13.43;74.40;100245.25;5063438;28;9596;-62
2022/05/21 01:31:45;;;;;;;;;11.00;10.00;;;;;13.37;74.16;100239.59;5077948;28;8860;-63
2022/05/21 01:34:13;;;;;;;;;14.50;9.25;;;;;13.31;74.46;100243.66;5077256;28;8840;-62
2022/05/21 01:36:40;;;;;;;;;11.00;10.00;;;;;13.25;74.76;100246.00;5078349;28;8847;-63
2022/05/21 01:39:09;;;;;;;;;8.75;8.75;;;;;13.20;74.68;100235.69;5079620;28;8917;-63
2022/05/21 01:41:37;;;;;;;;;9.25;9.25;;;;;13.15;75.00;100239.75;5079475;28;8878;-64
2022/05/21 01:46:50;;;;;;;;;10.50;9.25;;;;;13.06;74.78;100230.66;5078747;28;8966;-63
2022/05/21 01:49:18;;;;;;;;;10.75;9.50;;;;;13.03;75.22;100235.44;5078484;28;8832;-63
2022/05/21 01:51:45;;;;;;;;;12.00;9.00;;;;;12.99;75.06;100240.19;5079072;28;8847;-63
2022/05/21 01:54:13;;;;;;;;;7.50;7.50;;;;;12.96;75.14;100231.56;5078949;28;8840;-62
2022/05/21 01:56:41;;;;;;;;;7.50;6.25;;;;;12.92;75.38;100233.63;5078521;28;8828;-62
2022/05/21 01:59:10;;;;;;;;;11.50;9.75;;;;;12.88;75.37;100231.34;5068531;28;8818;-63
2022/05/21 02:01:38;;;;;;;;;10.50;8.50;;;;;12.85;75.55;100232.44;5058730;28;8834;-63
2022/05/21 02:04:05;;;;;;;;;4.75;4.75;;;;;12.81;75.28;100228.34;5059972;28;8822;-66
2022/05/21 02:06:33;;;;;;;;;8.00;7.00;;;;;12.80;75.04;100247.19;5058634;28;8923;-62
2022/05/21 02:09:02;;;;;;;;;11.25;10.00;;;;;12.76;75.77;100235.91;5058556;28;8839;-63
2022/05/21 02:11:29;;;;;;;;;5.50;5.50;;;;;12.75;75.46;100244.06;5058361;28;8845;-62
2022/05/21 02:13:57;;;;;;;;;11.00;9.50;;;;;12.73;75.35;100236.16;5058347;28;8831;-62
2022/05/21 02:16:24;;;;;;;;;5.00;5.00;;;;;12.72;75.47;100238.97;5058324;28;8899;-64
2022/05/21 02:18:52;;;;;;;;;10.00;9.00;;;;;12.73;75.79;100243.31;5066893;28;9497;-63
2022/05/21 02:21:20;;;;;;;;;6.50;6.50;;;;;12.72;75.39;100230.94;5078127;28;8858;-63
2022/05/21 02:23:48;;;;;;;;;5.00;5.00;;;;;12.74;75.42;100223.63;5077865;28;8828;-63
2022/05/21 02:26:17;;;;;;;;;6.00;6.00;;;;;12.77;75.23;100223.41;5058186;28;8951;-63
2022/05/21 02:28:45;;;;;;;;;3.50;3.50;;;;;12.80;75.15;100220.47;5058164;28;8857;-63
2022/05/21 02:31:12;;;;;;;;;3.00;3.00;;;;;12.84;74.97;100225.41;5058204;28;8845;-63
2022/05/21 02:33:40;;;;;;;;;7.00;6.25;;;;;12.87;75.28;100224.31;5058497;28;8945;-63
2022/05/21 02:36:08;;;;;;;;;3.00;3.00;;;;;12.88;74.87;100220.66;5058419;28;8834;-63
2022/05/21 02:41:21;;;;;;;;;3.50;3.50;;;;;12.88;74.78;100212.63;5057999;28;8842;-63
2022/05/21 02:43:48;;;;;;;;;3.75;3.25;;;;;12.88;75.13;100209.97;5057810;28;8854;-63
2022/05/21 02:46:16;;;;;;;;;5.00;4.00;;;;;12.87;75.38;100209.13;5057546;28;8844;-62
2022/05/21 02:48:44;;;;;;;;;5.00;4.00;;;;;12.89;75.21;100220.53;5050064;28;8828;-63
2022/05/21 02:51:12;;;;;;;;;4.50;3.50;;;;;12.90;75.15;100208.88;5038121;28;8843;-63
2022/05/21 02:53:40;;;;;;;;;4.50;4.50;;;;;12.92;75.29;100204.22;5037781;28;8841;-63
2022/05/21 02:56:08;;;;;;;;;6.25;4.00;;;;;12.96;74.52;100196.81;5037681;28;8857;-62
2022/05/21 02:58:36;;;;;;;;;3.00;3.00;;;;;13.01;74.96;100205.31;5038007;28;8840;-63
2022/05/21 03:01:05;;;;;;;;;0.75;0.75;;;;;13.05;74.35;100212.13;5037794;28;8967;-62
2022/05/21 03:03:33;;;;;;;;;4.00;4.00;;;;;13.10;74.65;100204.53;5036893;28;8845;-63
2022/05/21 03:06:00;;;;;;;;;2.50;1.00;;;;;13.14;74.33;100205.97;5036589;28;8855;-63
2022/05/21 03:11:25;;;;;;;;;6.00;5.50;;;;;13.20;74.86;100211.63;4957224;28;8858;-63
2022/05/21 03:13:52;;;;;;;;;6.25;6.25;;;;;13.22;74.22;100193.59;5018997;28;8866;-62
2022/05/21 03:16:20;;;;;;;;;5.50;5.50;;;;;13.25;74.23;100203.19;5036828;28;8829;-63
2022/05/21 03:18:48;;;;;;;;;10.00;8.00;;;;;13.27;74.43;100202.09;5037443;28;8820;-63
2022/05/21 03:21:16;;;;;;;;;4.00;3.25;;;;;13.29;74.41;100199.31;5037496;28;8844;-64
2022/05/21 03:23:46;;;;;;;;;6.50;6.50;;;;;13.30;74.49;100204.50;5037573;28;8867;-62
2022/05/21 03:26:14;;;;;;;;;5.25;5.00;;;;;13.32;73.87;100204.38;5037045;28;8828;-62
2022/05/21 03:28:43;;;;;;;;;7.50;7.50;;;;;13.33;73.85;100209.59;5037348;28;8846;-62
2022/05/21 03:31:11;;;;;;;;;6.75;6.25;;;;;13.35;74.22;100212.16;5036970;28;8840;-63
2022/05/21 03:33:39;;;;;;;;;8.50;7.50;;;;;13.36;74.40;100205.81;5036954;28;8978;-63
2022/05/21 03:36:08;;;;;;;;;9.75;7.50;;;;;13.37;74.10;100208.34;5037136;28;8848;-62
2022/05/21 03:38:36;;;;;;;;;6.00;6.00;;;;;13.39;73.94;100210.88;5036684;28;8832;-63
2022/05/21 03:41:04;;;;;;;;;5.50;5.00;;;;;13.39;73.99;100211.75;5036560;28;8864;-63
2022/05/21 03:43:32;;;;;;;;;5.25;5.25;;;;;13.39;74.24;100211.75;5036816;28;8840;-62
2022/05/21 03:46:00;;;;;;;;;6.00;5.00;;;;;13.40;73.81;100215.25;5037037;28;9572;-62
2022/05/21 03:48:28;;;;;;;;;6.50;6.50;;;;;13.40;73.70;100217.94;5043793;28;8810;-62
2022/05/21 03:50:56;;;;;;;;;1.00;1.00;;;;;13.41;74.07;100224.97;5056217;28;8979;-62
2022/05/21 03:53:23;;;;;;;;;4.00;3.00;;;;;13.41;74.34;100235.66;5056037;28;8887;-62
2022/05/21 03:55:53;;;;;;;;;5.75;5.75;;;;;13.40;73.97;100224.13;5056558;28;8965;-63
2022/05/21 03:58:21;;;;;;;;;5.50;5.50;;;;;13.38;74.50;100230.59;5054669;28;8834;-63
2022/05/21 04:00:50;;;;;;;;;8.75;8.75;;;;;13.34;74.57;100230.00;5056065;28;8842;-63
2022/05/21 04:03:19;;;;;;;;;6.50;6.00;;;;;13.34;74.53;100246.06;5055976;28;8858;-63
2022/05/21 04:05:47;;;;;;;;;9.25;9.00;;;;;13.32;74.48;100236.47;5056242;28;8830;-62
2022/05/21 04:08:15;;;;;;;;;10.75;9.50;;;;;13.31;74.58;100237.44;5056047;28;8823;-63
2022/05/21 04:10:43;;;;;;;;;3.50;3.50;;;;;13.30;74.32;100233.91;5056522;28;8931;-62
2022/05/21 04:13:10;;;;;;;;;5.75;3.00;;;;;13.31;74.10;100241.00;5056660;28;8853;-63
2022/05/21 04:15:38;;;;;;;;;8.00;7.00;;;;;13.33;74.70;100251.53;5056017;28;8846;-63
2022/05/21 04:18:06;;;;;;;;;12.00;11.50;;;;;13.32;74.04;100257.88;5051551;28;8821;-62
2022/05/21 04:20:34;;;;;;;;;13.00;10.75;;;;;13.28;74.62;100246.59;5036315;28;8825;-63
2022/05/21 04:23:02;;;;;;;;;7.00;5.50;;;;;13.27;74.63;100260.06;5036198;28;8843;-63
2022/05/21 04:25:30;;;;;;;;;12.00;9.75;;;;;13.24;74.61;100249.66;5035764;28;8844;-63
2022/05/21 04:27:57;;;;;;;;;9.50;8.50;;;;;13.23;74.48;100259.50;5035544;28;8840;-64
2022/05/21 04:30:27;;;;;;;;;7.00;5.00;;;;;13.19;74.49;100263.41;5035661;28;8963;-63
2022/05/21 04:32:55;;;;;;;;;15.00;14.00;;;;;13.14;74.97;100246.06;5035872;28;8849;-62
2022/05/21 04:35:22;;;;;;;;;12.00;10.00;;;;;13.12;74.48;100251.53;5035371;28;8829;-63
2022/05/21 04:37:50;;;;;;;;;12.50;10.50;;;;;13.13;74.67;100247.88;5035486;28;8859;-62
2022/05/21 04:40:18;;;;;;;;;12.25;9.75;;;;;13.14;74.82;100270.16;5035697;28;8974;-63
2022/05/21 04:42:46;;;;;;;;;12.00;10.00;;;;;13.12;75.11;100254.22;5035551;28;8844;-64
2022/05/21 04:45:13;;;;;;;;;7.50;6.50;;;;;13.14;74.49;100254.09;5035561;28;9491;-63
2022/05/21 04:47:41;;;;;;;;;12.00;11.50;;;;;13.16;74.84;100260.16;5038247;28;8819;-62
2022/05/21 04:50:09;;;;;;;;;10.75;8.50;;;;;13.18;74.50;100252.84;5035635;28;8828;-63
2022/05/21 04:52:37;;;;;;;;;7.75;7.75;;;;;13.18;74.85;100255.53;5035581;28;9600;-63
2022/05/21 04:55:05;;;;;;;;;8.75;8.50;;;;;13.18;74.50;100250.16;5035620;28;8836;-64
2022/05/21 04:57:32;;;;;;;;;6.00;5.00;;;;;13.16;74.83;100247.66;5035225;28;8863;-63
2022/05/21 05:00:00;;;;;;;;;7.00;7.00;;;;;13.16;74.91;100252.13;5035486;28;8844;-63
2022/05/21 05:02:28;;;;;;;;;9.25;9.00;;;;;13.14;74.66;100259.44;5035421;28;9355;-63
2022/05/21 05:04:56;;;;;;;;;6.75;6.50;;;;;13.12;75.12;100266.72;5034819;28;9502;-63
2022/05/21 05:07:24;;;;;;;;;9.25;9.00;;;;;13.09;75.03;100267.88;5034836;28;8824;-65
2022/05/21 05:09:52;;;;;;;;;8.00;8.00;;;;;13.09;75.00;100269.69;5035360;28;8845;-63
2022/05/21 05:12:20;;;;;;;;;9.00;7.00;;;;;13.06;75.34;100267.28;5035244;28;8955;-63
2022/05/21 05:14:47;;;;;;;;;8.50;8.00;;;;;13.04;75.22;100271.88;5035115;28;8860;-63
2022/05/21 05:17:15;;;;;;;;;7.00;6.00;;;;;13.02;75.24;100268.50;5035722;28;8894;-66
2022/05/21 05:19:43;;;;;;;;;9.25;8.00;;;;;13.00;75.30;100278.47;5053278;28;8818;-63
2022/05/21 05:22:11;;;;;;;;;6.25;5.25;;;;;12.98;75.23;100289.28;5045873;28;8836;-63
2022/05/21 05:24:38;;;;;;;;;7.00;6.50;;;;;12.98;75.33;100285.78;5034667;28;8832;-63
2022/05/21 05:27:06;;;;;;;;;9.50;8.00;;;;;12.98;74.87;100291.97;5035078;28;8836;-63
2022/05/21 05:29:34;;;;;;;;;8.00;6.75;;;;;12.96;75.28;100291.25;5034928;28;9552;-63
2022/05/21 05:32:02;;;;;;;;;6.00;6.00;;;;;12.95;75.35;100288.69;5035267;28;8845;-63
2022/05/21 05:34:30;;;;;;;;;6.75;5.50;;;;;12.93;75.41;100286.09;5035463;28;8870;-62
2022/05/21 05:36:57;;;;;;;;;9.00;9.00;;;;;12.94;75.81;100278.94;5034984;28;8848;-63
2022/05/21 05:39:25;;;;;;;;;10.50;7.50;;;;;12.94;75.83;100281.63;5035164;28;8950;-64
2022/05/21 05:41:53;;;;;;;;;9.00;7.00;;;;;12.97;75.83;100290.28;5034939;28;8862;-63
2022/05/21 05:44:21;;;;;;;;;8.00;7.00;;;;;12.97;75.57;100289.41;5034590;28;8844;-64
2022/05/21 05:46:49;;;;;;;;;3.50;1.50;;;;;12.94;75.33;100295.88;5035001;28;8824;-63
2022/05/21 05:49:17;;;;;;;;;8.50;8.00;;;;;12.86;75.86;100292.97;5034536;28;8849;-63
2022/05/21 05:51:44;;;;;;;;;7.50;7.50;;;;;12.80;75.95;100295.28;5039330;28;8810;-64
2022/05/21 05:54:12;;;;;;;;;12.00;10.50;;;;;12.75;76.27;100295.69;5049125;28;8837;-64
2022/05/21 05:56:42;;;;;;;;;9.00;8.00;;;;;12.73;76.63;100289.63;5033476;28;8848;-64
2022/05/21 06:02:58;;;;;;;;;9.00;6.25;;;;;12.84;76.30;100296.75;5034268;28;8886;-64
2022/05/21 06:04:43;;;;;;;;;8.50;7.50;;;;;12.92;76.23;100288.94;5034523;28;8855;-63
2022/05/21 06:07:10;;;;;;;;;10.50;9.25;;;;;12.99;76.13;100292.81;5034191;28;8898;-63
2022/05/21 06:09:39;;;;;;;;;11.00;9.00;;;;;13.05;75.85;100281.63;5034812;28;9548;-66
2022/05/21 06:12:08;;;;;;;;;7.00;6.50;;;;;13.11;75.55;100287.28;5034582;28;8832;-62
2022/05/21 06:14:36;;;;;;;;;5.00;4.00;;;;;13.18;75.53;100284.94;5033730;28;8971;-63
2022/05/21 06:17:04;;;;;;;;;11.50;9.75;;;;;13.23;75.24;100293.44;5036649;28;9771;-63
2022/05/21 06:19:32;;;;;;;;;3.00;3.00;;;;;13.25;75.27;100296.81;5038046;28;8860;-62
2022/05/21 06:22:00;;;;;;;;;12.00;9.50;;;;;13.27;75.38;100305.53;5044225;28;8834;-63
2022/05/21 06:24:27;;;;;;;;;9.75;9.75;;;;;13.29;75.07;100295.59;5057288;28;8890;-63
2022/05/21 06:26:56;;;;;;;;;7.00;7.00;;;;;13.35;75.48;100300.41;5057387;28;8838;-63
2022/05/21 06:29:24;;;;;;;;;7.00;6.50;;;;;13.44;75.37;100311.16;5057546;28;8842;-64
2022/05/21 06:31:52;;;;;;;;;8.00;6.25;;;;;13.54;75.03;100303.19;5056474;28;8861;-62
2022/05/21 06:34:20;;;;;;;;;3.75;3.75;;;;;13.64;74.45;100306.78;5057409;28;8834;-63
2022/05/21 06:36:47;;;;;;;;;9.25;9.25;;;;;13.76;74.42;100313.75;5057478;28;8830;-63
2022/05/21 06:39:15;;;;;;;;;4.00;4.00;;;;;13.91;74.04;100304.38;5057648;28;9492;-62
2022/05/21 06:41:43;;;;;;;;;6.25;4.00;;;;;14.11;73.51;100308.84;5057586;28;8854;-62
2022/05/21 06:44:11;;;;;;;;;9.00;7.50;;;;;14.26;73.08;100312.88;5057682;28;8846;-62
2022/05/21 06:46:38;;;;;;;;;6.00;6.00;;;;;14.38;72.44;100304.59;5057403;28;8860;-65
2022/05/21 06:49:07;;;;;;;;;5.00;4.00;;;;;14.50;72.46;100299.97;5057458;28;8850;-62
2022/05/21 06:51:34;;;;;;;;;4.50;4.50;;;;;14.66;72.15;100305.63;5054927;28;8852;-62
2022/05/21 06:54:02;;;;;;;;;9.00;7.00;;;;;14.74;71.70;100301.28;5037299;28;8871;-64
2022/05/21 06:56:30;;;;;;;;;7.00;7.00;;;;;14.83;71.77;100304.94;5037838;28;8824;-63
2022/05/21 06:58:58;;;;;;;;;6.00;6.00;;;;;14.89;71.70;100309.75;5037475;28;8890;-63
2022/05/21 07:01:26;;;;;;;;;7.50;6.00;;;;;14.93;70.88;100316.50;5037224;28;8879;-64
2022/05/21 07:03:53;;;;;;;;;7.50;7.50;;;;;14.88;71.65;100308.88;5036673;28;8817;-64
2022/05/21 07:09:08;;;;;;;;;7.75;7.25;;;;;14.74;71.51;100308.47;5037452;28;8876;-63
2022/05/21 07:11:37;;;;;;;;;6.00;3.75;;;;;14.67;71.66;100308.19;5036530;28;8840;-63
2022/05/21 07:14:04;;;;;;;;;6.50;6.00;;;;;14.59;71.61;100309.84;5036227;28;8840;-63
2022/05/21 07:16:37;;;;;;;;;5.50;5.00;;;;;14.52;72.31;100320.28;5036012;28;8832;-63
2022/05/21 07:19:04;;;;;;;;;9.75;6.00;;;;;14.49;72.69;100322.41;5036198;28;8847;-63
2022/05/21 07:21:32;;;;;;;;;6.00;5.50;;;;;14.47;72.50;100318.97;5038111;28;8891;-63
2022/05/21 07:24:01;;;;;;;;;6.50;5.50;;;;;14.44;72.34;100324.63;5056679;28;8864;-64
2022/05/21 07:26:29;;;;;;;;;6.50;6.50;;;;;14.44;72.56;100322.81;5056753;28;9659;-63
2022/05/21 07:28:58;;;;;;;;;5.00;4.00;;;;;14.44;72.55;100319.28;5055954;28;8911;-63
2022/05/21 07:31:26;;;;;;;;;6.50;5.00;;;;;14.45;72.05;100331.69;5056319;28;8968;-63
2022/05/21 07:33:54;;;;;;;;;7.00;7.00;;;;;14.47;72.34;100332.38;5056150;28;9091;-63
2022/05/21 07:36:21;;;;;;;;;5.00;4.00;;;;;14.51;71.90;100331.97;5056098;28;8875;-63
2022/05/21 07:38:49;;;;;;;;;9.00;8.00;;;;;14.60;72.24;100335.66;5055727;28;8846;-63
2022/05/21 07:41:17;;;;;;;;;7.00;7.00;;;;;14.69;71.72;100337.50;5056144;28;8838;-63
2022/05/21 07:43:45;;;;;;;;;9.00;9.00;;;;;14.72;71.50;100339.94;5056195;28;8957;-63
2022/05/21 07:46:13;;;;;;;;;7.00;6.25;;;;;14.75;71.39;100342.31;5055525;28;8854;-63
2022/05/21 07:48:41;;;;;;;;;3.75;3.50;;;;;14.76;71.25;100339.53;5055456;28;8908;-63
2022/05/21 07:51:08;;;;;;;;;6.00;6.00;;;;;14.75;71.21;100342.31;5056107;28;9527;-63
2022/05/21 07:53:36;;;;;;;;;5.50;4.00;;;;;14.73;71.17;100349.66;5036565;28;8849;-63
2022/05/21 07:56:04;;;;;;;;;6.75;6.75;;;;;14.71;71.89;100346.28;5035798;28;8882;-63
2022/05/21 07:58:32;;;;;;;;;6.50;6.00;;;;;14.71;71.47;100343.59;5035572;28;8848;-64
2022/05/21 08:00:59;;;;;;;;;9.75;8.00;;;;;14.71;71.75;100348.97;5035218;28;8836;-63
2022/05/21 08:03:35;;;;;;;;;8.75;7.50;;;;;14.68;71.99;100342.03;5035555;28;8840;-63
2022/05/21 08:06:02;;;;;;;;;6.50;5.50;;;;;14.68;71.86;100349.22;5035099;28;8887;-64
2022/05/21 08:08:30;;;;;;;;;3.25;3.00;;;;;14.70;71.47;100341.88;5035375;28;8966;-63
2022/05/21 08:10:58;;;;;;;;;8.00;7.00;;;;;14.75;71.39;100343.19;5035724;28;8852;-63
2022/05/21 08:13:26;;;;;;;;;6.00;5.00;;;;;14.79;71.17;100354.47;5035748;28;8870;-63
2022/05/21 08:15:53;;;;;;;;;9.50;9.00;;;;;14.82;71.62;100356.88;5035732;28;8829;-63
2022/05/21 08:18:22;;;;;;;;;6.00;6.00;;;;;14.91;71.08;100361.41;5035312;28;8870;-63
2022/05/21 08:20:53;;;;;;;;;4.00;4.00;;;;;15.06;70.82;100360.00;5034736;28;9494;-64
2022/05/21 08:28:51;;;;;;;;;7.50;7.00;;;;;15.41;69.73;100371.91;5050197;28;9504;-63
2022/05/21 08:31:22;;;;;;;;;8.00;6.50;;;;;15.40;69.99;100369.38;5038463;28;8845;-62
2022/05/21 08:33:50;;;;;;;;;6.00;5.50;;;;;15.35;70.01;100369.81;5051872;28;8835;-62
2022/05/21 08:36:19;;;;;;;;;6.00;3.75;;;;;15.38;69.73;100371.34;5043476;28;8836;-62
2022/05/21 08:38:47;;;;;;;;;12.00;9.00;;;;;15.44;69.98;100381.50;5034207;28;9639;-62
2022/05/21 08:41:15;;;;;;;;;7.00;6.50;;;;;15.40;69.99;100388.16;5039686;28;8961;-63
2022/05/21 08:43:43;;;;;;;;;11.50;8.75;;;;;15.31;69.91;100392.53;5053957;28;8849;-63
2022/05/21 08:46:11;;;;;;;;;11.00;9.75;;;;;15.28;70.03;100392.78;5054189;28;8834;-62
2022/05/21 08:48:39;;;;;;;;;6.75;6.00;;;;;15.27;70.07;100391.09;5054512;28;9148;-63
2022/05/21 08:51:07;;;;;;;;;9.25;8.00;;;;;15.19;70.06;100395.47;5054516;28;8886;-63
2022/05/21 08:53:34;;;;;;;;;8.75;8.50;;;;;15.16;70.42;100393.91;5053439;28;8919;-63
2022/05/21 08:56:05;;;;;;;;;2.50;2.00;;;;;15.15;70.30;100394.03;5053546;28;8845;-63
2022/05/21 08:58:34;;;;;;;;;6.00;6.00;;;;;15.17;70.42;100394.78;5050893;28;8861;-63
2022/05/21 09:01:02;;;;;;;;;4.00;4.00;;;;;15.16;70.47;100398.44;5033690;28;8845;-64
2022/05/21 09:03:29;;;;;;;;;10.00;7.00;;;;;15.13;70.46;100393.34;5034031;28;8867;-65
2022/05/21 09:05:57;;;;;;;;;7.50;6.75;;;;;15.06;70.34;100401.09;5033228;28;8860;-64
2022/05/21 09:08:26;;;;;;;;;7.00;4.00;;;;;15.05;70.92;100401.22;5034334;28;8836;-64
2022/05/21 09:10:54;;;;;;;;;6.75;6.25;;;;;15.09;70.37;100414.22;5033782;28;8852;-63
2022/05/21 09:13:21;;;;;;;;;6.25;6.25;;;;;15.16;70.34;100403.81;5034370;28;8971;-63
2022/05/21 09:18:35;;;;;;;;;6.00;4.00;;;;;15.31;70.14;100413.13;5034318;28;8864;-62
2022/05/21 09:21:02;;;;;;;;;10.50;9.00;;;;;15.34;70.19;100415.56;5033714;28;8832;-62
2022/05/21 09:23:30;;;;;;;;;5.50;3.75;;;;;15.37;69.71;100407.22;5034980;28;8856;-63
2022/05/21 09:25:58;;;;;;;;;9.00;6.00;;;;;15.40;69.99;100418.53;5033979;28;8844;-63
2022/05/21 09:28:28;;;;;;;;;6.25;5.50;;;;;15.47;69.65;100419.66;5035161;28;8945;-63
2022/05/21 09:30:56;;;;;;;;;6.25;6.00;;;;;15.46;70.17;100414.44;5053589;28;9542;-63
2022/05/21 09:33:24;;;;;;;;;4.00;4.00;;;;;15.38;69.97;100417.81;5053072;28;8862;-63
2022/05/21 09:35:53;;;;;;;;;8.00;7.00;;;;;15.33;70.06;100424.59;5053215;28;8846;-63
2022/05/21 09:38:21;;;;;;;;;6.50;6.25;;;;;15.31;69.78;100422.06;5052372;28;8865;-64
2022/05/21 09:40:49;;;;;;;;;7.50;6.25;;;;;15.37;69.59;100417.94;5052748;28;9766;-63
2022/05/21 09:46:02;;;;;;;;;9.00;9.00;;;;;15.51;69.28;100420.22;5049884;28;9523;-63
2022/05/21 09:48:30;;;;;;;;;7.00;7.00;;;;;15.66;69.02;100424.19;5052797;28;9519;-63
2022/05/21 09:50:58;;;;;;;;;7.00;7.00;;;;;15.80;68.90;100421.06;5054465;28;8850;-64
2022/05/21 09:53:26;;;;;;;;;6.00;6.00;;;;;15.95;68.05;100419.63;5055642;28;8859;-63
2022/05/21 09:55:54;;;;;;;;;9.00;6.00;;;;;16.01;68.68;100424.41;5056560;28;8969;-63
2022/05/21 09:58:22;;;;;;;;;9.75;8.50;;;;;16.08;68.29;100420.16;5056921;28;8862;-63
2022/05/21 10:00:49;;;;;;;;;6.50;5.50;;;;;16.27;67.69;100421.78;5036623;28;8851;-64
2022/05/21 10:03:19;;;;;;;;;5.50;5.50;;;;;16.40;66.91;100416.16;5036645;28;8848;-64
2022/05/21 10:05:47;;;;;;;;;7.00;7.00;;;;;16.40;67.44;100422.34;5036259;28;8840;-64
2022/05/21 10:11:00;;;;;;;;;6.50;6.00;;;;;17.04;66.33;100412.41;5036575;28;8930;-63
2022/05/21 10:13:28;;;;;;;;;6.20;5.60;;;;;17.64;65.06;100402.75;5035594;28;8862;-64
2022/05/21 10:15:55;;;;;;;;;6.80;4.40;;;;;18.36;63.20;100396.06;5036749;28;8840;-64
2022/05/21 10:18:23;;;;;;;;;3.80;3.80;;;;;18.46;62.93;100394.09;5036133;28;8867;-63
2022/05/21 10:20:54;;;;;;;;;6.80;5.20;;;;;18.26;63.52;100403.38;5036098;28;9088;-63
2022/05/21 10:23:21;;;;;;;;;9.00;7.00;;;;;17.98;63.91;100390.25;5036269;28;8974;-63
2022/05/21 10:25:49;;;;;;;;;6.60;6.00;;;;;17.64;65.03;100395.53;5036566;28;8969;-64
2022/05/21 10:28:17;;;;;;;;;6.00;6.00;;;;;17.95;64.29;100393.22;5038268;28;8848;-65
2022/05/21 10:30:45;;;;;;;;;4.80;4.80;;;;;18.63;62.61;100389.59;5057627;28;8861;-64
2022/05/21 10:33:13;;;;;;;;;5.20;4.00;;;;;19.30;61.05;100389.50;5038128;28;8871;-64
2022/05/21 10:35:41;;;;;;;;;7.00;6.20;;;;;19.92;59.85;100387.00;5037122;28;8876;-64
2022/05/21 10:38:08;;;;;;;;;8.20;7.00;;;;;20.34;59.34;100387.59;5036453;28;8860;-64
2022/05/21 10:40:36;;;;;;;;;7.40;7.40;;;;;20.59;58.50;100378.41;5035985;28;8844;-64
2022/05/21 10:43:04;;;;;;;;;4.60;4.20;;;;;20.84;58.51;100374.56;5037018;28;8870;-64
2022/05/21 10:45:32;;;;;;;;;8.00;8.00;;;;;21.39;57.75;100376.13;5037250;28;8855;-65
2022/05/21 10:48:00;;;;;;;;;0.80;0.60;;;;;21.80;56.27;100380.22;5037578;28;8866;-65
2022/05/21 10:50:27;;;;;;;;;7.80;5.80;;;;;22.04;55.89;100371.03;5037426;28;8866;-64
2022/05/21 10:52:55;;;;;;;;;9.80;7.40;;;;;22.34;55.26;100375.47;5036367;28;8859;-65
2022/05/21 10:55:23;;;;;;;;;5.80;5.80;;;;;22.62;55.18;100371.91;5036149;28;8929;-64
2022/05/21 10:57:51;;;;;;;;;7.40;4.80;;;;;23.05;53.90;100381.88;5035267;28;8832;-65
2022/05/21 11:00:19;;;;;;;;;5.40;5.00;;;;;23.30;54.30;100376.97;5054351;28;8981;-65
2022/05/21 11:02:46;;;;;;;;;8.20;6.40;;;;;23.52;53.04;100382.22;5055273;28;8974;-64
2022/05/21 11:05:14;;;;;;;;;6.80;6.20;;;;;23.53;52.76;100378.47;5055890;28;8842;-65
2022/05/21 11:07:42;;;;;;;;;7.60;6.60;;;;;23.25;53.95;100387.59;5056002;28;8852;-65
2022/05/21 11:10:11;;;;;;;;;5.20;5.00;;;;;22.83;54.24;100391.00;5055929;28;8815;-66
2022/05/21 11:12:39;;;;;;;;;7.00;5.40;;;;;22.84;54.36;100386.44;5055716;28;8850;-65
2022/05/21 11:15:06;;;;;;;;;8.60;8.60;;;;;23.12;53.42;100379.22;5054816;28;8838;-65
2022/05/21 11:17:35;;;;;;;;;8.00;7.80;;;;;23.21;53.73;100378.13;5055801;28;9575;-65
2022/05/21 11:20:03;;;;;;;;;5.20;4.60;;;;;23.23;53.30;100379.59;5055942;28;9010;-65
2022/05/21 11:22:31;;;;;;;;;10.80;8.60;;;;;22.85;53.94;100383.50;5055200;28;8972;-65
2022/05/21 11:24:59;;;;;;;;;8.20;8.00;;;;;22.18;55.08;100386.50;5055483;28;8866;-65
2022/05/21 11:27:27;;;;;;;;;6.20;5.00;;;;;21.39;55.95;100381.56;5055230;28;8915;-66
2022/05/21 11:29:55;;;;;;;;;7.00;5.40;;;;;20.69;57.01;100380.91;5053284;28;8834;-64
2022/05/21 11:37:53;;;;;;;;;7.60;4.40;;;;;19.21;60.14;100390.50;5055965;28;8849;-65
2022/05/21 11:40:21;;;;;;;;;1.40;1.40;;;;;18.98;60.89;100392.94;5055600;28;8872;-64
2022/05/21 11:42:49;;;;;;;;;4.80;4.00;;;;;18.84;61.14;100393.59;5055988;28;8862;-64
2022/05/21 11:45:17;;;;;;;;;5.60;5.00;;;;;18.77;60.75;100389.84;5056363;28;8871;-65
2022/05/21 11:47:45;;;;;;;;;7.80;7.40;;;;;18.69;60.93;100388.97;5054536;28;8854;-67
2022/05/21 11:50:13;;;;;;;;;5.40;5.40;;;;;18.64;61.08;100384.06;5055089;28;8838;-64
2022/05/21 11:52:41;;;;;;;;;3.20;3.00;;;;;18.70;60.55;100385.25;5054830;28;8977;-65
2022/05/21 11:55:10;;;;;;;;;6.00;6.00;;;;;18.73;60.78;100383.06;5055703;28;9499;-65
2022/05/21 11:57:37;;;;;;;;;7.00;6.60;;;;;18.78;60.86;100375.34;5055696;28;9512;-64
2022/05/21 12:00:06;;;;;;;;;5.40;5.40;;;;;18.97;60.29;100374.22;5039160;28;8867;-65
2022/05/21 12:02:34;;;;;;;;;6.00;6.00;;;;;19.24;59.05;100388.31;5035885;28;8910;-64
2022/05/21 12:05:02;;;;;;;;;4.40;4.00;;;;;19.46;58.86;100389.53;5036402;28;8848;-64
2022/05/21 12:07:29;;;;;;;;;7.00;6.40;;;;;19.42;58.79;100394.41;5036287;28;8891;-64
2022/05/21 12:09:58;;;;;;;;;6.20;6.20;;;;;19.25;59.10;100389.16;5035646;28;8856;-64